TimeEDT,TemperatureF,Dew PointF,Humidity,Sea Level PressureIn,VisibilityMPH,Wind Direction,Wind SpeedMPH,Gust SpeedMPH,PrecipitationIn,Events,Conditions,WindDirDegrees,DateUTC
12:53 AM,73.9,64.9,73,29.79,10.0,SSE,3.5,-,N/A,,Clear,160,2013-05-21 04:53:00
1:53 AM,73.9,64.9,73,29.78,10.0,South,8.1,-,N/A,,Clear,170,2013-05-21 05:53:00
2:53 AM,73.9,66.0,76,29.75,10.0,South,10.4,-,N/A,,Clear,180,2013-05-21 06:53:00
3:32 AM,71.6,57.2,60,29.79,10.0,WNW,15.0,24.2,N/A,,Overcast,290,2013-05-21 07:32:00
3:53 AM,66.9,61.0,81,29.78,9.0,West,6.9,-,0.06,Rain,Light Rain,280,2013-05-21 07:53:00
4:18 AM,66.2,62.6,88,29.88,3.0,SW,19.6,23.0,0.14,Rain-Thunderstorm,Light Thunderstorms and Rain,230,2013-05-21 08:18:00
4:20 AM,66.2,62.6,88,29.86,1.5,SW,16.1,24.2,0.28,Rain-Thunderstorm,Thunderstorms and Rain,230,2013-05-21 08:20:00
4:27 AM,64.4,62.6,94,29.83,0.8,WSW,4.6,24.2,0.51,Rain-Thunderstorm,Heavy Thunderstorms and Rain,240,2013-05-21 08:27:00
4:29 AM,64.4,62.6,94,29.82,1.0,WSW,4.6,-,0.52,Rain-Thunderstorm,Heavy Thunderstorms and Rain,240,2013-05-21 08:29:00
4:34 AM,64.4,62.6,94,29.82,2.0,Calm,Calm,-,0.53,Rain-Thunderstorm,Thunderstorms and Rain,0,2013-05-21 08:34:00
4:42 AM,64.4,62.6,94,29.82,4.0,South,4.6,-,0.56,Rain-Thunderstorm,Heavy Thunderstorms and Rain,190,2013-05-21 08:42:00
4:53 AM,64.0,62.1,93,29.80,5.0,SE,3.5,-,0.59,Rain-Thunderstorm,Thunderstorms and Rain,140,2013-05-21 08:53:00
5:24 AM,64.4,62.6,94,29.77,4.0,ESE,5.8,-,0.09,Rain,Heavy Rain,110,2013-05-21 09:24:00
5:53 AM,64.0,62.1,93,29.74,10.0,SE,4.6,-,0.10,,Overcast,140,2013-05-21 09:53:00
6:41 AM,64.4,62.6,94,29.78,10.0,South,5.8,-,0.00,,Mostly Cloudy,180,2013-05-21 10:41:00
6:53 AM,64.0,62.1,93,29.75,10.0,South,6.9,-,0.00,,Mostly Cloudy,170,2013-05-21 10:53:00
7:53 AM,64.9,63.0,93,29.76,10.0,South,10.4,-,N/A,,Mostly Cloudy,190,2013-05-21 11:53:00
8:34 AM,66.2,64.4,94,29.79,10.0,South,12.7,-,N/A,,Scattered Clouds,180,2013-05-21 12:34:00
8:53 AM,66.9,63.0,87,29.78,10.0,South,12.7,-,N/A,,Scattered Clouds,190,2013-05-21 12:53:00
9:53 AM,68.0,62.1,81,29.79,10.0,SSW,11.5,-,N/A,,Mostly Cloudy,200,2013-05-21 13:53:00
10:53 AM,70.0,63.0,78,29.78,10.0,SSW,11.5,-,N/A,,Mostly Cloudy,200,2013-05-21 14:53:00
11:53 AM,73.9,64.0,71,29.77,10.0,South,13.8,-,N/A,,Mostly Cloudy,170,2013-05-21 15:53:00
12:53 PM,75.9,63.0,64,29.76,10.0,South,16.1,19.6,N/A,,Mostly Cloudy,190,2013-05-21 16:53:00
1:53 PM,75.9,62.1,62,29.75,10.0,SSW,12.7,23.0,N/A,,Mostly Cloudy,200,2013-05-21 17:53:00
2:53 PM,78.1,63.0,60,29.75,10.0,SW,12.7,-,N/A,,Mostly Cloudy,220,2013-05-21 18:53:00
3:53 PM,79.0,64.0,60,29.75,10.0,SW,15.0,19.6,N/A,,Scattered Clouds,230,2013-05-21 19:53:00
4:53 PM,80.1,63.0,56,29.74,10.0,WSW,12.7,20.7,N/A,,Scattered Clouds,240,2013-05-21 20:53:00
5:53 PM,81.0,63.0,54,29.73,10.0,SW,10.4,-,N/A,,Clear,220,2013-05-21 21:53:00
6:53 PM,81.0,61.0,50,29.72,10.0,SSW,11.5,-,N/A,,Clear,210,2013-05-21 22:53:00
7:53 PM,79.0,63.0,58,29.71,10.0,SSW,11.5,-,N/A,,Clear,210,2013-05-21 23:53:00
8:53 PM,75.9,63.0,64,29.71,10.0,WSW,3.5,-,N/A,,Clear,240,2013-05-22 00:53:00
9:53 PM,73.9,64.0,71,29.73,10.0,SSW,3.5,-,N/A,,Clear,200,2013-05-22 01:53:00
10:53 PM,68.0,64.0,87,29.75,10.0,Calm,Calm,-,N/A,,Clear,0,2013-05-22 02:53:00
11:53 PM,69.1,64.0,84,29.73,10.0,Calm,Calm,-,N/A,,Scattered Clouds,0,2013-05-22 03:53:00